Assinippi, Massachusetts
Current Conditions -  °F | °C
As of 7:30 PM on Friday 24 Oct 2014 (Local Time) from KPYM Reporting Station
Overcast Overcast  
Wind Chill: 50°   Ceiling: 3200
Heat Index: 50°   Visibility: 10mi
Dew Point: 45°   Wind: 8mph
Humidity: 83%   Direction: 280°W
Pressure: 29.72"   Gusts: NA
Location:  42.1315°N, 70.8467°W
Report Text: KPYM 242330Z AUTO 28007KT 10SM BKN032 OVC046 10/07 A2972 RMK AO2 T01000072
Loading
Personal Weather Stations






























Interactive Weather Map
Tropical Storm Tracking
New forecast layout! Learn more

10-Day Weather Forecast

Advertisements
Track Severe Weather on mobile